Time;durP1;ratioP1;P1;durP2;ratioP2;P2;SDS_P1;SDS_P2;PMS_P1;PMS_P2;Temp;Humidity;BMP_temperature;BMP_pressure;BME280_temperature;BME280_humidity;BME280_pressure;Samples;Min_cycle;Max_cycle;Signal;HPM_P1;HPM_P2
2022/06/17 00:00:57;;;;;;;1.98;1.60;;;;;;;;;;2100206;28;20498;-59
2022/06/17 00:02:16;;;;;;;1.13;1.13;;;;;;;;;;2098786;28;20036;-59
2022/06/17 00:03:35;;;;;;;1.63;1.52;;;;;;;;;;2100091;28;20029;-59
2022/06/17 00:04:54;;;;;;;2.03;1.42;;;;;;;;;;2101317;28;20433;-59
2022/06/17 00:06:13;;;;;;;1.85;1.40;;;;;;;;;;2101085;28;20028;-60
2022/06/17 00:07:32;;;;;;;3.28;1.60;;;;;;;;;;2102227;28;20032;-59
2022/06/17 00:08:52;;;;;;;2.55;1.40;;;;;;;;;;2102231;28;20025;-58
2022/06/17 00:10:24;;;;;;;3.40;1.50;;;;;;;;;;2100406;28;20020;-59
2022/06/17 00:11:43;;;;;;;4.00;1.70;;;;;;;;;;2101817;28;20024;-58
2022/06/17 00:13:02;;;;;;;1.70;1.60;;;;;;;;;;2099286;28;20039;-59
2022/06/17 00:14:23;;;;;;;2.15;1.77;;;;;;;;;;2100721;28;20414;-59
2022/06/17 00:15:42;;;;;;;2.60;1.40;;;;;;;;;;2101416;28;20029;-58
2022/06/17 00:17:08;;;;;;;1.40;1.30;;;;;;;;;;2100823;28;20116;-58
2022/06/17 00:18:27;;;;;;;2.13;1.50;;;;;;;;;;2100864;28;20487;-60
2022/06/17 00:19:46;;;;;;;1.67;1.30;;;;;;;;;;2100876;28;20489;-59
2022/06/17 00:21:06;;;;;;;2.90;1.60;;;;;;;;;;2100449;28;20029;-56
2022/06/17 00:22:25;;;;;;;1.67;1.58;;;;;;;;;;2102845;28;20028;-57
2022/06/17 00:23:44;;;;;;;4.00;1.20;;;;;;;;;;2101533;28;20052;-58
2022/06/17 00:25:05;;;;;;;1.75;1.48;;;;;;;;;;2101108;28;20517;-57
2022/06/17 00:26:24;;;;;;;2.80;1.52;;;;;;;;;;2102359;28;20032;-58
2022/06/17 00:27:43;;;;;;;5.43;1.85;;;;;;;;;;2100768;28;20040;-59
2022/06/17 00:29:02;;;;;;;3.72;1.60;;;;;;;;;;2101596;28;20036;-59
2022/06/17 00:30:22;;;;;;;2.85;1.83;;;;;;;;;;2101273;28;20103;-59
2022/06/17 00:31:42;;;;;;;2.28;1.33;;;;;;;;;;2100668;28;20486;-59
2022/06/17 00:33:01;;;;;;;2.83;1.60;;;;;;;;;;2100012;28;20032;-60
2022/06/17 00:34:20;;;;;;;3.00;1.70;;;;;;;;;;2101115;28;20029;-59
2022/06/17 00:35:41;;;;;;;2.72;1.38;;;;;;;;;;2102663;28;20024;-59
2022/06/17 00:37:02;;;;;;;3.22;1.67;;;;;;;;;;2100242;28;20024;-59
2022/06/17 00:38:25;;;;;;;1.60;1.50;;;;;;;;;;2099912;28;20394;-60
2022/06/17 00:39:44;;;;;;;2.90;1.70;;;;;;;;;;2101688;28;20035;-58
2022/06/17 00:41:11;;;;;;;2.25;1.70;;;;;;;;;;2102523;28;20028;-59
2022/06/17 00:42:30;;;;;;;6.07;1.83;;;;;;;;;;2101005;28;20147;-59
2022/06/17 00:43:49;;;;;;;1.80;1.70;;;;;;;;;;2100722;28;20080;-59
2022/06/17 00:45:27;;;;;;;5.07;1.80;;;;;;;;;;2100941;28;20036;-58
2022/06/17 00:46:53;;;;;;;1.75;1.65;;;;;;;;;;2101972;28;20394;-59
2022/06/17 00:48:19;;;;;;;4.93;2.13;;;;;;;;;;2100917;28;20394;-59
2022/06/17 00:49:38;;;;;;;1.75;1.65;;;;;;;;;;2102872;28;20032;-59
2022/06/17 00:51:04;;;;;;;2.22;1.70;;;;;;;;;;2102529;28;20033;-60
2022/06/17 00:52:29;;;;;;;4.00;2.60;;;;;;;;;;2100526;28;20600;-59
2022/06/17 00:53:58;;;;;;;2.85;1.90;;;;;;;;;;2101073;28;20123;-56
2022/06/17 00:55:17;;;;;;;2.72;2.10;;;;;;;;;;2101765;28;20032;-59
2022/06/17 00:56:36;;;;;;;3.95;1.85;;;;;;;;;;2101839;28;20442;-58
2022/06/17 00:57:57;;;;;;;5.50;1.98;;;;;;;;;;2101664;28;20033;-60
2022/06/17 00:59:15;;;;;;;4.40;1.92;;;;;;;;;;2100594;28;20052;-60
2022/06/17 01:00:35;;;;;;;4.82;1.77;;;;;;;;;;2099924;28;20032;-59
2022/06/17 01:01:57;;;;;;;2.10;1.75;;;;;;;;;;2100395;28;20032;-59
2022/06/17 01:03:21;;;;;;;4.03;1.85;;;;;;;;;;2102275;28;20036;-59
2022/06/17 01:04:42;;;;;;;2.30;2.00;;;;;;;;;;2102259;28;20032;-58
2022/06/17 01:06:04;;;;;;;2.10;1.88;;;;;;;;;;2100593;28;20036;-58
2022/06/17 01:07:25;;;;;;;3.03;1.55;;;;;;;;;;2101025;28;20036;-58
2022/06/17 01:10:33;;;;;;;2.30;1.80;;;;;;;;;;2101392;28;20032;-60
2022/06/17 01:11:52;;;;;;;2.72;1.83;;;;;;;;;;2101010;28;20421;-59
2022/06/17 01:13:12;;;;;;;2.15;1.92;;;;;;;;;;2100629;28;20029;-59
2022/06/17 01:14:31;;;;;;;2.40;2.20;;;;;;;;;;2098469;28;20033;-58
2022/06/17 01:15:50;;;;;;;1.85;1.75;;;;;;;;;;2099465;28;20036;-59
2022/06/17 01:17:10;;;;;;;2.03;1.92;;;;;;;;;;2101222;28;20025;-59
2022/06/17 01:18:30;;;;;;;2.53;2.38;;;;;;;;;;2099508;28;20606;-60
2022/06/17 01:19:57;;;;;;;2.95;1.63;;;;;;;;;;2100811;28;20040;-56
2022/06/17 01:21:42;;;;;;;1.65;1.55;;;;;;;;;;2100860;28;20037;-60
2022/06/17 01:23:10;;;;;;;4.15;2.20;;;;;;;;;;2101098;28;20057;-59
2022/06/17 01:24:29;;;;;;;1.73;1.63;;;;;;;;;;2100992;28;20111;-58
2022/06/17 01:25:48;;;;;;;2.08;1.90;;;;;;;;;;2101765;28;20052;-59
2022/06/17 01:27:07;;;;;;;2.38;2.10;;;;;;;;;;2101374;28;20036;-60
2022/06/17 01:28:26;;;;;;;2.15;1.98;;;;;;;;;;2101248;28;20040;-58
2022/06/17 01:29:45;;;;;;;3.63;2.10;;;;;;;;;;2100353;28;20032;-59
2022/06/17 01:31:06;;;;;;;2.28;2.10;;;;;;;;;;2102142;28;20047;-59
2022/06/17 01:32:29;;;;;;;2.60;2.28;;;;;;;;;;2102270;28;20510;-60
2022/06/17 01:33:48;;;;;;;2.33;2.13;;;;;;;;;;2100554;28;20056;-58
2022/06/17 01:35:09;;;;;;;3.97;1.85;;;;;;;;;;2102668;28;20028;-60
2022/06/17 01:36:29;;;;;;;1.95;1.77;;;;;;;;;;2100428;28;20414;-59
2022/06/17 01:37:48;;;;;;;2.97;2.25;;;;;;;;;;2101038;28;20048;-60
2022/06/17 01:39:07;;;;;;;2.47;2.35;;;;;;;;;;2101482;28;20052;-58
2022/06/17 01:40:28;;;;;;;4.82;2.33;;;;;;;;;;2101387;28;20036;-58
2022/06/17 01:41:47;;;;;;;2.75;2.05;;;;;;;;;;2101941;28;20032;-59
2022/06/17 01:43:08;;;;;;;1.83;1.73;;;;;;;;;;2100552;28;20028;-58
2022/06/17 01:44:33;;;;;;;2.38;2.17;;;;;;;;;;2100771;28;20326;-59
2022/06/17 01:45:54;;;;;;;2.00;1.90;;;;;;;;;;2101738;28;20115;-60
2022/06/17 01:47:16;;;;;;;5.15;2.33;;;;;;;;;;2101654;28;20062;-60
2022/06/17 01:48:37;;;;;;;2.10;2.00;;;;;;;;;;2102428;28;20028;-59
2022/06/17 01:50:00;;;;;;;1.67;1.58;;;;;;;;;;2099827;28;20107;-59
2022/06/17 01:51:20;;;;;;;2.05;1.90;;;;;;;;;;2101462;28;20108;-59
2022/06/17 01:52:41;;;;;;;2.33;2.10;;;;;;;;;;2101186;28;20027;-58
2022/06/17 01:54:04;;;;;;;2.42;1.90;;;;;;;;;;2102254;28;20012;-59
2022/06/17 01:55:28;;;;;;;2.55;2.35;;;;;;;;;;2099735;28;20033;-60
2022/06/17 01:56:49;;;;;;;2.75;2.15;;;;;;;;;;2101468;28;20099;-58
2022/06/17 01:58:16;;;;;;;1.95;1.85;;;;;;;;;;2101949;28;20028;-59
2022/06/17 01:59:47;;;;;;;2.30;2.10;;;;;;;;;;2101852;28;20071;-59
2022/06/17 02:01:07;;;;;;;1.92;1.80;;;;;;;;;;2102177;28;20024;-59
2022/06/17 02:02:28;;;;;;;5.00;1.73;;;;;;;;;;2101218;28;20025;-60
2022/06/17 02:03:50;;;;;;;3.15;1.70;;;;;;;;;;2101735;28;20037;-60
2022/06/17 02:05:10;;;;;;;2.13;1.92;;;;;;;;;;2100396;28;20526;-59
2022/06/17 02:06:32;;;;;;;3.92;1.67;;;;;;;;;;2101599;28;20044;-59
2022/06/17 02:07:55;;;;;;;2.17;1.90;;;;;;;;;;2101401;28;20033;-61
2022/06/17 02:09:14;;;;;;;4.72;2.10;;;;;;;;;;2102007;28;20024;-60
2022/06/17 02:10:39;;;;;;;2.97;1.98;;;;;;;;;;2097514;28;20394;-59
2022/06/17 02:12:00;;;;;;;3.50;1.70;;;;;;;;;;2101040;28;20040;-58
2022/06/17 02:13:19;;;;;;;2.58;2.13;;;;;;;;;;2101414;28;20032;-58
2022/06/17 02:14:38;;;;;;;2.95;1.95;;;;;;;;;;2100625;28;20032;-56
2022/06/17 02:15:58;;;;;;;1.67;1.58;;;;;;;;;;2100846;28;20028;-54
2022/06/17 02:17:17;;;;;;;1.88;1.77;;;;;;;;;;2102043;28;20430;-58
2022/06/17 02:18:38;;;;;;;2.35;1.90;;;;;;;;;;2102012;28;20479;-57
2022/06/17 02:19:57;;;;;;;2.75;2.08;;;;;;;;;;2100455;28;20033;-59
2022/06/17 02:21:22;;;;;;;2.47;2.03;;;;;;;;;;2100389;28;20029;-57
2022/06/17 02:22:42;;;;;;;3.50;2.20;;;;;;;;;;2100327;28;20032;-59
2022/06/17 02:24:03;;;;;;;3.85;1.70;;;;;;;;;;2101812;28;20071;-59
2022/06/17 02:25:24;;;;;;;2.25;2.08;;;;;;;;;;2100374;28;20028;-62
2022/06/17 02:26:43;;;;;;;2.17;1.75;;;;;;;;;;2108239;28;20025;-58
2022/06/17 02:28:03;;;;;;;4.63;1.85;;;;;;;;;;2103298;28;20028;-59
2022/06/17 02:29:22;;;;;;;2.28;2.17;;;;;;;;;;2101358;28;20115;-58
2022/06/17 02:30:42;;;;;;;3.53;2.13;;;;;;;;;;2098897;28;20478;-59
2022/06/17 02:32:03;;;;;;;1.92;1.83;;;;;;;;;;2099617;28;20024;-58
2022/06/17 02:33:23;;;;;;;2.15;1.90;;;;;;;;;;2099021;28;20020;-58
2022/06/17 02:34:49;;;;;;;2.55;2.13;;;;;;;;;;2101194;28;20056;-59
2022/06/17 02:36:19;;;;;;;2.05;1.95;;;;;;;;;;2099559;28;20024;-58
2022/06/17 02:37:38;;;;;;;3.42;2.38;;;;;;;;;;2100292;28;20083;-58
2022/06/17 02:38:59;;;;;;;2.55;2.35;;;;;;;;;;2101293;28;20032;-57
2022/06/17 02:40:25;;;;;;;2.15;2.05;;;;;;;;;;2097705;28;20107;-58
2022/06/17 02:41:46;;;;;;;2.60;2.22;;;;;;;;;;2099567;28;20032;-57
2022/06/17 02:43:06;;;;;;;2.05;1.95;;;;;;;;;;2096447;28;20036;-54
2022/06/17 02:44:31;;;;;;;1.95;1.85;;;;;;;;;;2099663;28;20107;-59
2022/06/17 02:45:53;;;;;;;2.15;1.95;;;;;;;;;;2097526;28;20033;-59
2022/06/17 02:47:11;;;;;;;2.10;2.00;;;;;;;;;;2101045;28;20501;-59
2022/06/17 02:48:33;;;;;;;1.80;1.70;;;;;;;;;;2096735;28;20021;-59
2022/06/17 02:49:53;;;;;;;2.00;1.90;;;;;;;;;;2099115;28;22082;-58
2022/06/17 02:51:13;;;;;;;1.77;1.67;;;;;;;;;;2099890;28;20035;-57
2022/06/17 02:52:36;;;;;;;2.50;2.03;;;;;;;;;;2099582;28;20024;-60
2022/06/17 02:53:57;;;;;;;2.83;1.92;;;;;;;;;;2102057;28;20024;-58
2022/06/17 02:55:20;;;;;;;2.78;2.58;;;;;;;;;;2104263;28;20055;-59
2022/06/17 02:56:43;;;;;;;6.40;2.38;;;;;;;;;;2098954;28;20055;-58
2022/06/17 02:58:22;;;;;;;3.03;2.20;;;;;;;;;;2100809;28;20036;-59
2022/06/17 02:59:45;;;;;;;2.97;2.22;;;;;;;;;;2100072;28;20033;-58
2022/06/17 03:01:12;;;;;;;2.15;2.05;;;;;;;;;;2100916;28;20028;-59
2022/06/17 03:02:33;;;;;;;2.53;2.33;;;;;;;;;;2100357;28;20490;-57
2022/06/17 03:03:53;;;;;;;3.40;2.33;;;;;;;;;;2099278;28;20068;-58
2022/06/17 03:05:17;;;;;;;4.75;1.80;;;;;;;;;;2098090;28;20075;-60
2022/06/17 03:06:37;;;;;;;3.05;2.30;;;;;;;;;;2099410;28;20506;-62
2022/06/17 03:07:57;;;;;;;2.35;1.65;;;;;;;;;;2097828;28;20036;-58
2022/06/17 03:09:21;;;;;;;4.53;2.70;;;;;;;;;;2101648;28;20028;-59
2022/06/17 03:10:41;;;;;;;4.43;2.00;;;;;;;;;;2099652;28;20032;-57
2022/06/17 03:12:00;;;;;;;4.10;2.58;;;;;;;;;;2100693;28;20033;-57
2022/06/17 03:13:25;;;;;;;2.13;1.90;;;;;;;;;;2100296;28;20028;-59
2022/06/17 03:14:50;;;;;;;2.40;2.15;;;;;;;;;;2100166;28;20036;-58
2022/06/17 03:16:11;;;;;;;2.92;2.13;;;;;;;;;;2097671;28;20491;-58
2022/06/17 03:17:32;;;;;;;1.70;1.60;;;;;;;;;;2098803;28;20024;-59
2022/06/17 03:18:52;;;;;;;1.95;1.85;;;;;;;;;;2099824;28;20032;-58
2022/06/17 03:20:22;;;;;;;2.03;1.90;;;;;;;;;;2101104;28;20419;-59
2022/06/17 03:21:41;;;;;;;5.43;2.10;;;;;;;;;;2100310;28;20016;-57
2022/06/17 03:23:21;;;;;;;2.25;2.05;;;;;;;;;;2100227;28;20495;-59
2022/06/17 03:24:46;;;;;;;2.67;1.73;;;;;;;;;;2088368;28;20021;-59
2022/06/17 03:26:13;;;;;;;2.30;2.08;;;;;;;;;;2097964;28;20036;-59
2022/06/17 03:27:38;;;;;;;2.17;2.00;;;;;;;;;;2099692;28;20020;-57
2022/06/17 03:28:58;;;;;;;2.40;1.88;;;;;;;;;;2099944;28;20490;-59
2022/06/17 03:30:25;;;;;;;2.45;1.90;;;;;;;;;;2099010;28;20033;-58
2022/06/17 03:31:46;;;;;;;1.83;1.73;;;;;;;;;;2099309;28;20028;-60
2022/06/17 03:33:09;;;;;;;2.00;1.90;;;;;;;;;;2100179;28;20024;-59
2022/06/17 03:34:32;;;;;;;2.65;1.88;;;;;;;;;;2101068;28;20036;-58
2022/06/17 03:35:53;;;;;;;2.08;1.70;;;;;;;;;;2099042;28;20021;-56
2022/06/17 03:37:15;;;;;;;1.98;1.88;;;;;;;;;;2098915;28;20028;-59
2022/06/17 03:38:37;;;;;;;1.73;1.63;;;;;;;;;;2099485;28;20028;-58
2022/06/17 03:40:03;;;;;;;1.98;1.88;;;;;;;;;;2097813;28;20028;-60
2022/06/17 03:41:25;;;;;;;2.00;1.30;;;;;;;;;;2096874;28;20040;-59
2022/06/17 03:42:46;;;;;;;1.92;1.73;;;;;;;;;;2102616;28;20114;-57
2022/06/17 03:44:12;;;;;;;3.38;1.67;;;;;;;;;;2101328;28;20139;-58
2022/06/17 03:45:43;;;;;;;1.63;1.50;;;;;;;;;;2101073;28;20024;-58
2022/06/17 03:47:15;;;;;;;3.70;1.70;;;;;;;;;;2099711;28;20037;-59
2022/06/17 03:48:44;;;;;;;2.58;1.40;;;;;;;;;;2102794;28;20441;-59
2022/06/17 03:50:08;;;;;;;1.45;1.40;;;;;;;;;;2101686;28;20524;-59
2022/06/17 03:51:28;;;;;;;1.73;1.63;;;;;;;;;;2101355;28;20059;-60
2022/06/17 03:52:53;;;;;;;2.83;1.65;;;;;;;;;;2100821;28;20021;-59
2022/06/17 03:54:15;;;;;;;2.33;1.70;;;;;;;;;;2101710;28;20139;-60
2022/06/17 03:55:35;;;;;;;6.45;1.60;;;;;;;;;;2102880;28;20468;-59
2022/06/17 03:56:54;;;;;;;2.22;1.65;;;;;;;;;;2098205;28;20035;-58
2022/06/17 03:58:17;;;;;;;1.90;1.80;;;;;;;;;;2100171;28;20029;-59
2022/06/17 03:59:36;;;;;;;;;;;;;;;;;;2101460;28;20032;-60
2022/06/17 04:01:21;;;;;;;1.52;1.42;;;;;;;;;;2100210;28;19904;-58
2022/06/17 04:02:40;;;;;;;2.25;1.38;;;;;;;;;;2091135;28;20036;-59
2022/06/17 04:04:08;;;;;;;1.50;1.40;;;;;;;;;;2102874;28;20032;-58
2022/06/17 04:05:27;;;;;;;2.88;1.48;;;;;;;;;;2102119;28;20112;-57
2022/06/17 04:06:48;;;;;;;2.20;1.40;;;;;;;;;;2100458;28;20474;-59
2022/06/17 04:08:09;;;;;;;1.23;1.23;;;;;;;;;;2101791;28;20027;-59
2022/06/17 04:09:32;;;;;;;2.03;1.30;;;;;;;;;;2099890;28;20033;-60
2022/06/17 04:10:50;;;;;;;7.18;2.13;;;;;;;;;;2102670;28;20064;-59
2022/06/17 04:12:12;;;;;;;1.67;1.08;;;;;;;;;;2101276;28;20032;-59
2022/06/17 04:13:33;;;;;;;2.58;1.40;;;;;;;;;;2102556;28;20032;-58
2022/06/17 04:14:54;;;;;;;1.30;1.20;;;;;;;;;;2101112;28;20045;-59
2022/06/17 04:16:14;;;;;;;1.52;1.40;;;;;;;;;;2099753;28;20024;-57
2022/06/17 04:17:43;;;;;;;4.00;1.88;;;;;;;;;;2101316;28;20040;-60
2022/06/17 04:19:03;;;;;;;1.25;1.15;;;;;;;;;;2099571;28;20034;-56
2022/06/17 04:20:22;;;;;;;3.13;1.45;;;;;;;;;;2102731;28;20032;-59
2022/06/17 04:21:41;;;;;;;1.85;1.30;;;;;;;;;;2099793;28;20024;-56
2022/06/17 04:23:02;;;;;;;2.05;1.33;;;;;;;;;;2099861;28;21531;-59
2022/06/17 04:24:23;;;;;;;2.20;1.02;;;;;;;;;;2100186;28;20107;-59
2022/06/17 04:26:02;;;;;;;3.67;1.50;;;;;;;;;;2099528;28;20025;-59
2022/06/17 04:27:22;;;;;;;3.53;1.30;;;;;;;;;;2098936;28;20139;-59
2022/06/17 04:28:40;;;;;;;2.08;1.20;;;;;;;;;;2099112;28;20402;-59
2022/06/17 04:30:00;;;;;;;1.30;1.20;;;;;;;;;;2101661;28;20024;-59
2022/06/17 04:31:20;;;;;;;1.75;1.20;;;;;;;;;;2101556;28;20029;-59
2022/06/17 04:32:40;;;;;;;2.33;1.40;;;;;;;;;;2100195;28;20033;-57
2022/06/17 04:33:58;;;;;;;2.58;1.05;;;;;;;;;;2100382;28;20028;-57
2022/06/17 04:35:18;;;;;;;1.38;1.25;;;;;;;;;;2101199;28;20103;-59
2022/06/17 04:37:06;;;;;;;1.70;1.15;;;;;;;;;;2097871;28;20028;-58
2022/06/17 04:38:25;;;;;;;1.58;1.00;;;;;;;;;;2096411;28;20334;-59
2022/06/17 04:39:55;;;;;;;1.20;0.90;;;;;;;;;;2101788;28;20028;-58
2022/06/17 04:41:15;;;;;;;3.08;0.90;;;;;;;;;;2102181;28;20052;-59
2022/06/17 04:42:36;;;;;;;1.10;0.90;;;;;;;;;;2096105;28;20484;-56
2022/06/17 04:43:56;;;;;;;1.30;1.20;;;;;;;;;;2099943;28;20485;-58
2022/06/17 04:45:22;;;;;;;3.67;1.33;;;;;;;;;;2099701;28;20111;-58
2022/06/17 04:46:51;;;;;;;0.98;0.70;;;;;;;;;;2097589;28;20021;-58
2022/06/17 04:48:09;;;;;;;2.28;0.80;;;;;;;;;;2100434;28;20410;-59
2022/06/17 04:49:30;;;;;;;1.10;1.00;;;;;;;;;;2092898;28;20327;-57
2022/06/17 04:50:50;;;;;;;1.15;0.80;;;;;;;;;;2099041;28;20032;-59
2022/06/17 04:52:21;;;;;;;1.10;1.00;;;;;;;;;;2100075;28;20021;-58
2022/06/17 04:53:42;;;;;;;0.90;0.70;;;;;;;;;;2101143;28;20517;-60
2022/06/17 04:55:02;;;;;;;2.53;0.90;;;;;;;;;;2101102;28;20028;-59
2022/06/17 04:56:26;;;;;;;2.08;0.80;;;;;;;;;;2101600;28;20028;-60
2022/06/17 04:57:47;;;;;;;1.80;0.65;;;;;;;;;;2098191;28;20044;-59
2022/06/17 04:59:24;;;;;;;0.95;0.95;;;;;;;;;;2098295;28;20032;-60
2022/06/17 05:00:44;;;;;;;2.08;0.90;;;;;;;;;;2098385;28;20681;-58
2022/06/17 05:02:05;;;;;;;0.98;0.98;;;;;;;;;;2099541;28;20060;-59
2022/06/17 05:03:28;;;;;;;1.17;0.77;;;;;;;;;;2098898;28;20032;-59
2022/06/17 05:04:49;;;;;;;2.42;0.77;;;;;;;;;;2100527;28;20029;-59
2022/06/17 05:06:09;;;;;;;0.85;0.85;;;;;;;;;;2102337;28;20408;-60
2022/06/17 05:07:31;;;;;;;0.80;0.70;;;;;;;;;;2098909;28;20462;-61
2022/06/17 05:08:51;;;;;;;1.02;0.70;;;;;;;;;;2098986;28;20040;-59
2022/06/17 05:10:19;;;;;;;0.70;0.70;;;;;;;;;;2096885;28;21388;-59
2022/06/17 05:11:41;;;;;;;0.70;0.70;;;;;;;;;;2098336;28;20557;-60
2022/06/17 05:13:03;;;;;;;2.17;0.68;;;;;;;;;;2096915;28;20047;-59
2022/06/17 05:14:31;;;;;;;0.80;0.80;;;;;;;;;;2099104;28;20028;-58
2022/06/17 05:15:50;;;;;;;1.83;0.82;;;;;;;;;;2098544;28;20680;-59
2022/06/17 05:17:09;;;;;;;2.35;0.98;;;;;;;;;;2098767;28;20037;-60
2022/06/17 05:18:28;;;;;;;2.28;0.85;;;;;;;;;;2099964;28;20036;-58
2022/06/17 05:19:50;;;;;;;0.98;0.63;;;;;;;;;;2100271;28;20103;-57
2022/06/17 05:21:19;;;;;;;0.70;0.70;;;;;;;;;;2099448;28;20028;-59
2022/06/17 05:22:58;;;;;;;2.40;0.90;;;;;;;;;;2100618;28;20553;-58
2022/06/17 05:24:17;;;;;;;2.38;0.93;;;;;;;;;;2100312;28;20044;-59
2022/06/17 05:25:37;;;;;;;1.65;0.75;;;;;;;;;;2099139;28;20024;-61
2022/06/17 05:26:57;;;;;;;0.60;0.55;;;;;;;;;;2099781;28;20029;-59
2022/06/17 05:28:18;;;;;;;1.85;0.60;;;;;;;;;;2098864;28;20028;-60
2022/06/17 05:29:37;;;;;;;2.70;0.63;;;;;;;;;;2099535;28;20020;-58
2022/06/17 05:31:00;;;;;;;3.30;0.70;;;;;;;;;;2100780;28;20039;-59
2022/06/17 05:32:19;;;;;;;1.75;0.55;;;;;;;;;;2102423;28;20028;-60
2022/06/17 05:33:39;;;;;;;1.23;0.45;;;;;;;;;;2101229;28;20040;-59
2022/06/17 05:34:57;;;;;;;1.42;0.60;;;;;;;;;;2100139;28;20032;-60
2022/06/17 05:36:17;;;;;;;2.20;0.63;;;;;;;;;;2099508;28;20029;-58
2022/06/17 05:37:36;;;;;;;0.70;0.70;;;;;;;;;;2100255;28;20040;-61
2022/06/17 05:38:55;;;;;;;4.18;0.88;;;;;;;;;;2099180;28;20025;-59
2022/06/17 05:40:15;;;;;;;0.70;0.70;;;;;;;;;;2101516;28;20032;-60
2022/06/17 05:41:34;;;;;;;1.58;0.82;;;;;;;;;;2101552;28;20029;-60
2022/06/17 05:42:53;;;;;;;2.90;0.80;;;;;;;;;;2099579;28;20107;-58
2022/06/17 05:44:14;;;;;;;4.95;0.77;;;;;;;;;;2100294;28;20100;-60
2022/06/17 05:45:33;;;;;;;0.70;0.70;;;;;;;;;;2100600;28;20051;-59
2022/06/17 05:46:51;;;;;;;0.77;0.60;;;;;;;;;;2101452;28;20122;-60
2022/06/17 05:48:10;;;;;;;3.30;0.80;;;;;;;;;;2101359;28;20020;-58
2022/06/17 05:49:29;;;;;;;1.42;0.70;;;;;;;;;;2100530;28;20028;-59
2022/06/17 05:50:48;;;;;;;2.40;1.02;;;;;;;;;;2101507;28;20110;-61
2022/06/17 05:52:09;;;;;;;2.05;0.80;;;;;;;;;;2101991;28;20024;-60
2022/06/17 05:53:28;;;;;;;1.05;0.70;;;;;;;;;;2101092;28;20115;-60
2022/06/17 05:54:47;;;;;;;0.50;0.50;;;;;;;;;;2101128;28;20514;-61
2022/06/17 05:56:06;;;;;;;3.65;0.70;;;;;;;;;;2101158;28;20048;-60
2022/06/17 05:57:25;;;;;;;0.50;0.50;;;;;;;;;;2100858;28;20502;-60
2022/06/17 05:58:44;;;;;;;2.03;0.50;;;;;;;;;;2100378;28;21232;-60
2022/06/17 06:00:03;;;;;;;1.13;0.60;;;;;;;;;;2101556;28;20028;-61
2022/06/17 06:01:22;;;;;;;1.83;0.75;;;;;;;;;;2101866;28;20495;-59
2022/06/17 06:02:41;;;;;;;1.05;0.82;;;;;;;;;;2100448;28;20040;-58
2022/06/17 06:04:01;;;;;;;3.80;0.82;;;;;;;;;;2100769;28;20441;-60
2022/06/17 06:05:21;;;;;;;1.35;0.68;;;;;;;;;;2100829;28;20040;-60
2022/06/17 06:06:39;;;;;;;1.65;0.70;;;;;;;;;;2101809;28;20020;-60
2022/06/17 06:07:59;;;;;;;0.65;0.65;;;;;;;;;;2101628;28;20028;-59
2022/06/17 06:09:18;;;;;;;2.80;0.65;;;;;;;;;;2101209;28;20028;-60
2022/06/17 06:10:37;;;;;;;0.63;0.63;;;;;;;;;;2100531;28;20017;-60
2022/06/17 06:11:56;;;;;;;4.07;0.85;;;;;;;;;;2101219;28;20028;-60
2022/06/17 06:13:16;;;;;;;1.15;0.75;;;;;;;;;;2101695;28;20025;-59
2022/06/17 06:14:35;;;;;;;1.75;0.80;;;;;;;;;;2101184;28;20390;-61
2022/06/17 06:15:55;;;;;;;0.75;0.68;;;;;;;;;;2101012;28;20036;-60
2022/06/17 06:17:14;;;;;;;2.25;0.50;;;;;;;;;;2101729;28;20077;-60
2022/06/17 06:18:36;;;;;;;1.33;0.65;;;;;;;;;;2100591;28;20040;-60
2022/06/17 06:19:55;;;;;;;3.90;0.85;;;;;;;;;;2100280;28;20040;-60
2022/06/17 06:21:14;;;;;;;0.70;0.70;;;;;;;;;;2101234;28;20506;-60
2022/06/17 06:22:33;;;;;;;1.83;0.80;;;;;;;;;;2101220;28;20453;-60
2022/06/17 06:23:55;;;;;;;1.60;0.65;;;;;;;;;;2100609;28;20414;-58
2022/06/17 06:25:15;;;;;;;1.70;1.02;;;;;;;;;;2101631;28;20032;-60
2022/06/17 06:26:34;;;;;;;0.82;0.32;;;;;;;;;;2100737;28;20040;-60
2022/06/17 06:27:53;;;;;;;0.93;0.73;;;;;;;;;;2100799;28;20032;-60
2022/06/17 06:29:12;;;;;;;2.20;0.50;;;;;;;;;;2101179;28;20482;-60
2022/06/17 06:30:31;;;;;;;1.60;0.50;;;;;;;;;;2101675;28;20025;-59
2022/06/17 06:31:50;;;;;;;0.85;0.80;;;;;;;;;;2101138;28;20028;-60
2022/06/17 06:33:10;;;;;;;1.52;0.63;;;;;;;;;;2101685;28;20478;-60
2022/06/17 06:34:29;;;;;;;2.10;0.82;;;;;;;;;;2100383;28;20040;-60
2022/06/17 06:35:48;;;;;;;5.55;0.60;;;;;;;;;;2100529;28;20042;-60
2022/06/17 06:37:07;;;;;;;0.70;0.70;;;;;;;;;;2101481;28;20024;-60
2022/06/17 06:38:26;;;;;;;1.73;0.47;;;;;;;;;;2101384;28;20032;-60
2022/06/17 06:39:45;;;;;;;2.00;0.50;;;;;;;;;;2100875;28;20036;-60
2022/06/17 06:41:04;;;;;;;0.50;0.47;;;;;;;;;;2101368;28;20467;-59
2022/06/17 06:42:23;;;;;;;2.53;0.75;;;;;;;;;;2100212;28;20039;-61
2022/06/17 06:43:42;;;;;;;0.70;0.60;;;;;;;;;;2101221;28;20410;-60
2022/06/17 06:45:01;;;;;;;3.38;0.88;;;;;;;;;;2100290;28;20112;-61
2022/06/17 06:46:22;;;;;;;2.63;0.63;;;;;;;;;;2101638;28;20033;-61
2022/06/17 06:47:41;;;;;;;2.00;0.63;;;;;;;;;;2101371;28;20060;-60
2022/06/17 06:49:00;;;;;;;0.82;0.60;;;;;;;;;;2101566;28;20082;-60
2022/06/17 06:50:21;;;;;;;0.95;0.70;;;;;;;;;;2099865;28;20024;-61
2022/06/17 06:51:40;;;;;;;0.68;0.50;;;;;;;;;;2100402;28;20032;-61
2022/06/17 06:52:59;;;;;;;1.00;0.52;;;;;;;;;;2101526;28;20040;-60
2022/06/17 06:54:18;;;;;;;2.13;0.70;;;;;;;;;;2101235;28;20032;-61
2022/06/17 06:55:37;;;;;;;1.75;0.88;;;;;;;;;;2101167;28;20028;-60
2022/06/17 06:56:59;;;;;;;0.95;0.80;;;;;;;;;;2100578;28;20020;-60
2022/06/17 06:58:20;;;;;;;0.57;0.57;;;;;;;;;;2100958;28;20119;-60
2022/06/17 06:59:39;;;;;;;2.53;0.60;;;;;;;;;;2100471;28;20032;-61
2022/06/17 07:00:58;;;;;;;2.35;0.70;;;;;;;;;;2100312;28;20044;-60
2022/06/17 07:02:17;;;;;;;0.52;0.45;;;;;;;;;;2101032;28;20028;-60
2022/06/17 07:03:36;;;;;;;1.73;0.70;;;;;;;;;;2101038;28;20036;-60
2022/06/17 07:04:55;;;;;;;4.15;0.55;;;;;;;;;;2101126;28;20028;-60
2022/06/17 07:06:14;;;;;;;1.73;1.08;;;;;;;;;;2100988;28;20045;-59
2022/06/17 07:07:33;;;;;;;3.55;0.70;;;;;;;;;;2100005;28;20444;-60
2022/06/17 07:08:52;;;;;;;0.73;0.50;;;;;;;;;;2101358;28;20056;-58
2022/06/17 07:10:14;;;;;;;0.40;0.40;;;;;;;;;;2101198;28;20035;-59
2022/06/17 07:11:33;;;;;;;2.03;0.60;;;;;;;;;;2101149;28;20060;-60
2022/06/17 07:12:52;;;;;;;1.23;0.60;;;;;;;;;;2100990;28;20020;-59
2022/06/17 07:14:11;;;;;;;1.42;0.73;;;;;;;;;;2099732;28;20502;-60
2022/06/17 07:15:30;;;;;;;6.50;0.80;;;;;;;;;;2099981;28;20036;-60
2022/06/17 07:16:49;;;;;;;2.40;0.50;;;;;;;;;;2102307;28;20028;-60
2022/06/17 07:18:13;;;;;;;2.17;0.52;;;;;;;;;;2101209;28;20490;-59
2022/06/17 07:19:32;;;;;;;1.15;0.50;;;;;;;;;;2100781;28;20032;-60
2022/06/17 07:20:52;;;;;;;2.40;0.60;;;;;;;;;;2100432;28;20151;-61
2022/06/17 07:22:11;;;;;;;3.30;0.50;;;;;;;;;;2100550;28;20040;-61
2022/06/17 07:23:34;;;;;;;1.60;0.50;;;;;;;;;;2100426;28;20061;-61
2022/06/17 07:24:53;;;;;;;1.00;0.50;;;;;;;;;;2100577;28;20028;-60
2022/06/17 07:26:15;;;;;;;0.70;0.60;;;;;;;;;;2099823;28;20045;-59
2022/06/17 07:27:34;;;;;;;3.58;0.88;;;;;;;;;;2100435;28;20405;-60
2022/06/17 07:28:54;;;;;;;3.78;1.00;;;;;;;;;;2101085;28;20107;-59
2022/06/17 07:30:21;;;;;;;0.52;0.40;;;;;;;;;;2099566;28;20110;-59
2022/06/17 07:31:41;;;;;;;1.42;0.40;;;;;;;;;;2101104;28;20033;-60
2022/06/17 07:33:00;;;;;;;4.38;0.60;;;;;;;;;;2101323;28;20032;-60
2022/06/17 07:34:19;;;;;;;4.20;0.55;;;;;;;;;;2102223;28;20041;-60
2022/06/17 07:35:39;;;;;;;7.88;1.30;;;;;;;;;;2099632;28;20032;-59
2022/06/17 07:40:14;;;;;;;1.83;1.13;;;;;;;;;;2100503;28;20028;-60
2022/06/17 07:41:33;;;;;;;0.75;0.70;;;;;;;;;;2101338;28;20119;-59
2022/06/17 07:42:52;;;;;;;1.10;0.82;;;;;;;;;;2101024;28;20103;-59
2022/06/17 07:44:11;;;;;;;2.17;0.90;;;;;;;;;;2101186;28;20032;-60
2022/06/17 07:45:31;;;;;;;8.38;1.05;;;;;;;;;;2098931;28;20580;-62
2022/06/17 07:46:50;;;;;;;2.05;1.30;;;;;;;;;;2100366;28;20487;-59
2022/06/17 07:48:13;;;;;;;0.85;0.65;;;;;;;;;;2099840;28;20072;-61
2022/06/17 07:49:32;;;;;;;3.67;0.40;;;;;;;;;;2100990;28;20029;-58
2022/06/17 07:50:50;;;;;;;1.75;0.60;;;;;;;;;;2100758;28;20485;-60
2022/06/17 07:52:09;;;;;;;1.50;0.60;;;;;;;;;;2101754;28;20032;-60
2022/06/17 07:53:29;;;;;;;1.55;1.42;;;;;;;;;;2101320;28;20033;-58
2022/06/17 07:54:48;;;;;;;0.98;0.68;;;;;;;;;;2100807;28;20024;-60
2022/06/17 07:56:09;;;;;;;2.53;0.30;;;;;;;;;;2100556;28;20028;-60
2022/06/17 07:57:28;;;;;;;5.40;0.93;;;;;;;;;;2101151;28;20032;-60
2022/06/17 07:58:47;;;;;;;2.30;0.40;;;;;;;;;;2101430;28;20491;-60
2022/06/17 08:00:08;;;;;;;1.48;0.60;;;;;;;;;;2101156;28;20036;-59
2022/06/17 08:01:27;;;;;;;1.70;0.45;;;;;;;;;;2100487;28;20379;-59
2022/06/17 08:02:46;;;;;;;0.55;0.50;;;;;;;;;;2100577;28;20538;-60
2022/06/17 08:04:05;;;;;;;2.97;0.35;;;;;;;;;;2100163;28;20067;-60
2022/06/17 08:05:24;;;;;;;2.53;0.50;;;;;;;;;;2100269;28;20032;-59
2022/06/17 08:06:49;;;;;;;0.95;0.30;;;;;;;;;;2101586;28;20040;-59
2022/06/17 08:08:08;;;;;;;0.30;0.20;;;;;;;;;;2100554;28;20032;-60
2022/06/17 08:09:28;;;;;;;0.50;0.40;;;;;;;;;;2100485;28;20482;-60
2022/06/17 08:10:48;;;;;;;4.88;0.22;;;;;;;;;;2100086;28;20020;-60
2022/06/17 08:12:11;;;;;;;0.38;0.13;;;;;;;;;;2101906;28;20032;-60
2022/06/17 08:13:30;;;;;;;0.73;0.22;;;;;;;;;;2100486;28;20538;-60